Latest Coastal Weather Observations for Bairnsdale

IDV60701

Issued at 12:32 am EST Sunday 26 June 2022 (issued every 10 minutes, with the page automatically refreshed every 10 minutes)

About coastal observations | Map of coastal stations | Coastal observations for VIC | Marine services | Other Formats
Station Details ID: 085279 Name: BAIRNSDALE AIRPORT Lat: -37.88 Lon: 147.57 Height: 49.4 m
Data from the previous 72 hours. | See also: Recent months at Bairnsdale
Date/Time
EST
Wind Sea
Height
m
Swell Vis
km
Cloud Weather Temp
°C
Press
MSL
hPa
Rain since
9am
mm
Dir  Spd
kts
Gust
kts
Height
m
Period
s
Dir
26/12:30am NW 7 10 - - - - 10 Clear - 7.7 1020.5 0.0
26/12:00am NNW 7 9 - - - - 10 - - 8.3 1020.3 0.0
 
Date/Time
EST
Wind Sea
Height
m
Swell Vis
km
Cloud Weather Temp
°C
Press
MSL
hPa
Rain since
9am
mm
Dir  Spd
kts
Gust
kts
Height
m
Period
s
Dir
25/11:30pm NNW 6 9 - - - - 10 - - 8.3 1020.4 0.0
25/11:00pm N 4 5 - - - - 10 - - 8.0 1020.4 0.0
25/10:30pm N 4 5 - - - - 10 - - 7.7 1020.2 0.0
25/10:00pm N 5 5 - - - - 10 - - 9.1 1020.2 0.0
25/09:30pm N 5 6 - - - - 10 - - 8.0 1020.3 0.0
25/09:00pm N 5 6 - - - - 10 - - 9.1 1020.2 0.0
25/08:30pm NNW 4 6 - - - - 10 - - 7.6 1020.2 0.0
25/08:00pm N 4 5 - - - - 10 - - 8.6 1020.1 0.0
25/07:30pm N 4 6 - - - - 10 - - 8.6 1019.9 0.0
25/07:00pm NNW 5 6 - - - - 10 - - 9.1 1019.7 0.0
25/06:30pm NW 5 7 - - - - 10 - - 8.6 1019.7 0.0
25/06:00pm NW 6 8 - - - - 10 - - 9.5 1019.5 0.0
25/05:30pm NW 5 7 - - - - 10 - - 9.6 1019.2 0.0
25/05:00pm NW 5 7 - - - - 10 - - 11.4 1019.1 0.0
25/04:30pm NW 6 9 - - - - 10 - - 13.3 1019.0 0.0
25/04:00pm NW 7 11 - - - - 10 - - 14.5 1018.9 0.0
25/03:30pm NW 10 14 - - - - 10 - - 15.4 1018.7 0.0
25/03:00pm NW 8 12 - - - - 10 - - 16.0 1018.4 0.0
25/02:30pm NW 10 16 - - - - 10 - - 16.2 1018.2 0.0
25/02:00pm NW 11 15 - - - - 10 - - 16.0 1018.0 0.0
25/01:30pm NW 12 16 - - - - 10 - - 16.1 1018.2 0.0
25/01:00pm NW 10 15 - - - - 10 - - 16.2 1018.2 0.0
25/12:30pm NW 11 15 - - - - 10 - - 15.8 1018.4 0.0
25/12:00pm NW 11 14 - - - - 10 - - 15.5 1018.8 0.0
25/11:30am NW 12 16 - - - - 10 - - 15.0 1019.1 0.0
25/11:00am NW 9 14 - - - - 10 - - 14.8 1019.5 0.0
25/10:30am NW 8 12 - - - - 10 - - 13.7 1019.5 0.0
25/10:00am WNW 7 9 - - - - 10 - - 12.4 1019.4 0.0
25/09:30am WNW 6 7 - - - - 10 - - 10.5 1019.1 0.0
25/09:00am NW 5 6 - - - - 10 - - 9.2 1018.8 0.2
25/08:30am NW 7 8 - - - - 10 - - 8.0 1018.8 0.2
25/08:00am NW 7 9 - - - - 10 - - 6.4 1018.6 0.2
25/07:30am NW 7 8 - - - - 10 - - 4.0 1018.4 0.2
25/07:00am NNW 5 6 - - - - 10 - - 4.8 1018.2 0.2
25/06:30am NW 6 9 - - - - 10 - - 5.8 1017.8 0.2
25/06:00am NW 3 5 - - - - 10 - - 4.0 1017.6 0.2
25/05:30am N 4 5 - - - - 10 - - 4.0 1017.2 0.2
25/05:00am N 4 5 - - - - 10 Partly cloudy - 5.3 1017.0 0.2
25/04:30am NNE 4 5 - - - - 10 Partly cloudy - 6.6 1016.8 0.2
25/04:00am WNW 4 5 - - - - 10 Cloudy - 8.0 1016.8 0.2
25/03:30am WSW 3 4 - - - - 10 Cloudy - 6.2 1016.8 0.2
25/03:00am CALM 0 0 - - - - 10 Mostly cloudy - 5.6 1016.8 0.2
25/02:30am ENE 3 3 - - - - 10 Cloudy - 6.0 1016.8 0.2
25/02:00am NE 2 5 - - - - 10 Partly cloudy - 5.8 1016.7 0.2
25/01:30am N 3 4 - - - - 10 Partly cloudy - 6.8 1016.7 0.2
25/01:00am SSW 2 4 - - - - 10 Cloudy - 6.8 1016.9 0.2
25/12:30am S 4 6 - - - - 10 Cloudy - 6.4 1017.2 0.2
25/12:00am NNE 3 4 - - - - 10 Mostly cloudy - 7.0 1017.2 0.2
 
Date/Time
EST
Wind Sea
Height
m
Swell Vis
km
Cloud Weather Temp
°C
Press
MSL
hPa
Rain since
9am
mm
Dir  Spd
kts
Gust
kts
Height
m
Period
s
Dir
24/11:30pm NNE 2 5 - - - - 10 Cloudy - 6.6 1017.3 0.2
24/11:00pm CALM 0 0 - - - - 10 Partly cloudy - 6.6 1017.3 0.2
24/10:30pm CALM 0 2 - - - - 10 Partly cloudy - 7.4 1017.2 0.2
24/10:00pm NW 4 5 - - - - 10 Partly cloudy - 8.2 1017.0 0.2
24/09:30pm WNW 4 5 - - - - 10 Partly cloudy - 7.6 1017.0 0.2
24/09:00pm W 4 5 - - - - 10 Mostly clear - 8.0 1017.0 0.2
24/08:30pm WSW 6 7 - - - - 10 - - 8.8 1016.8 0.2
24/08:00pm W 5 7 - - - - 10 Partly cloudy - 9.8 1016.6 0.2
24/07:30pm NW 4 6 - - - - 10 Partly cloudy - 9.9 1016.5 0.2
24/07:00pm NW 5 7 - - - - 10 Partly cloudy - 9.3 1016.1 0.2
24/06:30pm NW 4 5 - - - - 10 Partly cloudy - 9.8 1015.6 0.2
24/06:00pm WNW 6 8 - - - - 10 Partly cloudy - 11.3 1015.3 0.2
24/05:30pm SW 6 8 - - - - 10 Partly cloudy - 10.6 1015.0 0.2
24/05:00pm WSW 7 10 - - - - 10 Partly cloudy - 12.0 1014.6 0.2
24/04:30pm WSW 10 13 - - - - 10 Partly cloudy - 12.8 1014.2 0.2
24/04:00pm WSW 10 14 - - - - 10 Partly cloudy - 13.5 1014.0 0.2
24/03:30pm WSW 14 18 - - - - 10 Cloudy - 14.1 1013.8 0.2
24/03:00pm WSW 14 22 - - - - 10 Mostly cloudy - 14.6 1013.7 0.2
24/02:30pm WSW 15 21 - - - - 10 Partly cloudy - 14.9 1013.2 0.2
24/02:00pm WSW 11 16 - - - - 10 Partly cloudy - 15.0 1013.1 0.2
24/01:30pm W 13 19 - - - - 10 Cloudy - 16.1 1013.0 0.2
24/01:00pm NW 8 11 - - - - 10 Partly cloudy - 17.1 1012.9 0.2
24/12:30pm NW 9 13 - - - - 10 Partly cloudy - 16.8 1013.0 0.2
24/12:00pm WNW 7 10 - - - - 10 Mostly cloudy - 15.6 1013.4 0.2
24/11:30am W 5 8 - - - - 10 Cloudy - 15.2 1013.5 0.2
24/11:00am NW 7 10 - - - - 10 Cloudy - 15.2 1013.6 0.2
24/10:30am NW 8 11 - - - - 10 Cloudy - 14.2 1013.5 0.2
24/10:00am NW 8 11 - - - - 10 Cloudy - 13.8 1013.4 0.2
24/09:30am NNW 4 6 - - - - 10 Partly cloudy - 12.5 1013.1 0.2
24/09:00am NNW 3 5 - - - - 10 Mostly cloudy Rain 11.8 1013.0 2.8
24/08:30am NNW 3 4 - - - - 8 Partly cloudy - 11.9 1012.9 2.0
24/08:00am NW 5 7 - - - - 10 Cloudy - 12.5 1012.9 0.8
24/07:30am WNW 5 7 - - - - 10 Partly cloudy - 13.6 1012.6 0.2
24/07:00am W 5 6 - - - - 10 Partly cloudy - 13.5 1012.2 0.0
24/06:30am NW 5 7 - - - - 10 Partly cloudy - 14.6 1011.9 0.0
24/06:00am NNW 9 14 - - - - 10 Mostly cloudy - 15.3 1011.2 0.0
24/05:30am NNW 13 19 - - - - 10 - - 15.4 1010.9 0.0
24/05:00am NNW 11 16 - - - - 10 - - 15.4 1010.5 0.0
24/04:30am NNW 11 18 - - - - 10 - - 15.3 1010.5 0.0
24/04:00am NNW 15 23 - - - - 10 - - 15.4 1010.9 0.0
24/03:30am NNW 12 21 - - - - 10 - - 15.4 1010.9 0.0
24/03:00am N 15 22 - - - - 10 - - 15.3 1011.0 0.0
24/02:30am N 15 24 - - - - 10 - - 15.3 1012.0 0.0
24/02:00am NNW 14 20 - - - - 10 - - 14.9 1012.8 0.0
24/01:30am NNW 13 18 - - - - 10 - - 14.7 1013.2 0.0
24/01:00am NNW 12 17 - - - - 10 - - 14.7 1013.4 0.0
24/12:30am NNW 11 17 - - - - 10 - - 14.7 1013.5 0.0
24/12:00am NNW 10 15 - - - - 10 Mostly clear - 14.6 1013.7 0.0
 
Date/Time
EST
Wind Sea
Height
m
Swell Vis
km
Cloud Weather Temp
°C
Press
MSL
hPa
Rain since
9am
mm
Dir  Spd
kts
Gust
kts
Height
m
Period
s
Dir
23/11:30pm NNW 10 15 - - - - 10 - - 14.4 1014.1 0.0
23/11:00pm NNW 9 13 - - - - 10 - - 13.8 1014.7 0.0
23/10:30pm NNW 7 9 - - - - 10 - - 13.5 1015.1 0.0
23/10:00pm NW 8 11 - - - - 10 - - 13.4 1015.3 0.0
23/09:30pm NW 11 16 - - - - 10 - - 14.2 1015.5 0.0
23/09:00pm NNW 8 11 - - - - 10 - - 13.5 1015.8 0.0
23/08:30pm NNW 6 9 - - - - 10 - - 13.1 1016.0 0.0
23/08:00pm NNW 8 12 - - - - 10 - - 13.2 1016.1 0.0
23/07:30pm N 6 8 - - - - 10 - - 13.2 1016.2 0.0
23/07:00pm N 6 7 - - - - 10 - - 13.6 1016.3 0.0
23/06:30pm NNW 7 9 - - - - 10 - - 13.8 1016.2 0.0
23/06:00pm NNW 8 10 - - - - 10 - - 13.7 1016.3 0.0
23/05:30pm NNW 8 10 - - - - 10 - - 13.8 1016.3 0.0
23/05:00pm NW 7 9 - - - - 10 - - 14.0 1016.6 0.0
23/04:30pm N 6 9 - - - - 10 - - 14.4 1016.6 0.0
23/04:00pm NNW 5 8 - - - - 10 - - 14.9 1016.8 0.0
23/03:30pm NW 6 9 - - - - 10 - - 15.4 1017.0 0.0
23/03:00pm NNW 7 9 - - - - 10 - - 15.8 1016.9 0.0
23/02:30pm NNW 8 12 - - - - 10 - - 16.3 1016.9 0.0
23/02:00pm NW 11 17 - - - - 10 - - 16.7 1017.2 0.0
23/01:30pm NNW 10 15 - - - - 10 - - 16.9 1017.5 0.0
23/01:00pm NW 12 18 - - - - 10 - - 17.0 1018.1 0.0
23/12:30pm NW 11 18 - - - - 10 - - 16.9 1018.6 0.0
23/12:00pm NW 10 16 - - - - 10 - - 17.2 1019.4 0.0
23/11:30am NW 9 14 - - - - 10 - - 17.0 1020.1 0.0
23/11:00am NW 9 13 - - - - 10 - - 16.4 1020.6 0.0
23/10:30am NNW 8 10 - - - - 10 - - 15.8 1021.0 0.0
23/10:00am NNW 7 9 - - - - 10 - - 14.0 1021.2 0.0
23/09:30am NNW 4 6 - - - - 10 - - 12.5 1021.1 0.0
23/09:00am N 3 5 - - - - 10 - - 10.7 1021.1 0.2
23/08:30am NNE 4 6 - - - - 10 - - 7.4 1021.4 0.2
23/08:00am NW 2 3 - - - - 10 Partly cloudy - 6.7 1021.6 0.2
23/07:30am NW 5 5 - - - - 10 - - 7.3 1021.5 0.2
23/07:00am CALM 0 2 - - - - 10 Partly cloudy - 7.1 1021.3 0.2
23/06:30am NNW 3 5 - - - - 10 Partly cloudy - 7.6 1021.1 0.2
23/06:00am N 4 6 - - - - 10 - - 7.6 1020.8 0.2
23/05:30am N 4 5 - - - - 10 Partly cloudy - 7.3 1020.8 0.2
23/05:00am NW 6 7 - - - - 10 Partly cloudy - 8.9 1021.1 0.2
23/04:30am WNW 7 8 - - - - 10 Partly cloudy - 8.0 1021.3 0.2
23/04:00am NNW 5 6 - - - - 10 Partly cloudy - 6.3 1021.5 0.2
23/03:30am NW 4 6 - - - - 10 Cloudy - 6.8 1021.7 0.0
23/03:00am NW 5 7 - - - - 10 Mostly clear - 6.7 1022.2 0.0
23/02:30am NW 5 7 - - - - 10 - - 6.0 1022.4 0.0
23/02:00am NW 6 7 - - - - 10 - - 5.8 1022.7 0.0
23/01:30am NW 5 6 - - - - 10 - - 5.2 1022.8 0.0
23/01:00am NNW 5 6 - - - - 10 - - 4.9 1022.9 0.0

Other formats

Comma delimited format used in spreadsheet applications
http://www.bom.gov.au/fwo/IDV60701/IDV60701.94912.axf

JavaScript Object Notation format (JSON) in row-major order
http://www.bom.gov.au/fwo/IDV60701/IDV60701.94912.json

Data quality

Most of these data are generated automatically and are frequently updated. Quality checks on data are not normally performed. It is possible for incorrect values to appear. Refer to information at About Latest Weather Observations and please check the disclaimer before using these data.